sensor_id;sensor_type;location;lat;lon;timestamp;P1;durP1;ratioP1;P2;durP2;ratioP2
4466;SDS011;2246;42.664;23.278;2023-02-28T00:01:13;23.15;;;11.57;;
4466;SDS011;2246;42.664;23.278;2023-02-28T00:03:40;23.98;;;11.77;;
4466;SDS011;2246;42.664;23.278;2023-02-28T00:06:06;24.42;;;12.45;;
4466;SDS011;2246;42.664;23.278;2023-02-28T00:08:33;24.38;;;12.10;;
4466;SDS011;2246;42.664;23.278;2023-02-28T00:11:00;25.60;;;11.98;;
4466;SDS011;2246;42.664;23.278;2023-02-28T00:13:27;25.10;;;11.38;;
4466;SDS011;2246;42.664;23.278;2023-02-28T00:16:00;21.13;;;10.88;;
4466;SDS011;2246;42.664;23.278;2023-02-28T00:18:26;23.58;;;10.52;;
4466;SDS011;2246;42.664;23.278;2023-02-28T00:20:52;20.80;;;11.05;;
4466;SDS011;2246;42.664;23.278;2023-02-28T00:23:18;22.23;;;10.82;;
4466;SDS011;2246;42.664;23.278;2023-02-28T00:25:44;22.45;;;10.65;;
4466;SDS011;2246;42.664;23.278;2023-02-28T00:28:10;19.25;;;8.95;;
4466;SDS011;2246;42.664;23.278;2023-02-28T00:30:36;14.07;;;7.65;;
4466;SDS011;2246;42.664;23.278;2023-02-28T00:33:03;11.45;;;5.97;;
4466;SDS011;2246;42.664;23.278;2023-02-28T00:35:29;10.88;;;6.43;;
4466;SDS011;2246;42.664;23.278;2023-02-28T00:37:55;12.43;;;6.47;;
4466;SDS011;2246;42.664;23.278;2023-02-28T00:40:21;12.93;;;6.20;;
4466;SDS011;2246;42.664;23.278;2023-02-28T00:42:47;12.18;;;6.65;;
4466;SDS011;2246;42.664;23.278;2023-02-28T00:45:13;16.70;;;7.30;;
4466;SDS011;2246;42.664;23.278;2023-02-28T00:47:39;31.98;;;14.65;;
4466;SDS011;2246;42.664;23.278;2023-02-28T00:50:06;34.90;;;16.85;;
4466;SDS011;2246;42.664;23.278;2023-02-28T00:52:32;29.00;;;14.73;;
4466;SDS011;2246;42.664;23.278;2023-02-28T00:55:00;26.13;;;12.65;;
4466;SDS011;2246;42.664;23.278;2023-02-28T00:57:26;25.85;;;12.82;;
4466;SDS011;2246;42.664;23.278;2023-02-28T00:59:52;25.30;;;11.95;;
4466;SDS011;2246;42.664;23.278;2023-02-28T01:02:21;24.45;;;11.27;;
4466;SDS011;2246;42.664;23.278;2023-02-28T01:04:48;25.33;;;12.23;;
4466;SDS011;2246;42.664;23.278;2023-02-28T01:07:14;24.27;;;12.52;;
4466;SDS011;2246;42.664;23.278;2023-02-28T01:09:40;25.42;;;12.20;;
4466;SDS011;2246;42.664;23.278;2023-02-28T01:12:07;26.75;;;13.70;;
4466;SDS011;2246;42.664;23.278;2023-02-28T01:14:33;27.33;;;14.40;;
4466;SDS011;2246;42.664;23.278;2023-02-28T01:16:59;27.67;;;14.20;;
4466;SDS011;2246;42.664;23.278;2023-02-28T01:19:25;35.50;;;15.60;;
4466;SDS011;2246;42.664;23.278;2023-02-28T01:21:51;40.22;;;18.08;;
4466;SDS011;2246;42.664;23.278;2023-02-28T01:24:18;41.47;;;19.88;;
4466;SDS011;2246;42.664;23.278;2023-02-28T01:26:44;41.95;;;19.33;;
4466;SDS011;2246;42.664;23.278;2023-02-28T01:29:10;43.63;;;19.85;;
4466;SDS011;2246;42.664;23.278;2023-02-28T01:31:36;40.90;;;19.20;;
4466;SDS011;2246;42.664;23.278;2023-02-28T01:34:03;38.55;;;18.38;;
4466;SDS011;2246;42.664;23.278;2023-02-28T01:36:29;40.70;;;18.70;;
4466;SDS011;2246;42.664;23.278;2023-02-28T01:38:55;39.10;;;19.10;;
4466;SDS011;2246;42.664;23.278;2023-02-28T01:41:23;46.08;;;20.00;;
4466;SDS011;2246;42.664;23.278;2023-02-28T01:46:15;46.50;;;21.05;;
4466;SDS011;2246;42.664;23.278;2023-02-28T01:48:50;47.10;;;21.50;;
4466;SDS011;2246;42.664;23.278;2023-02-28T01:51:18;54.65;;;24.42;;
4466;SDS011;2246;42.664;23.278;2023-02-28T01:53:47;53.63;;;23.15;;
4466;SDS011;2246;42.664;23.278;2023-02-28T01:56:16;54.42;;;23.13;;
4466;SDS011;2246;42.664;23.278;2023-02-28T01:58:48;54.72;;;21.83;;
4466;SDS011;2246;42.664;23.278;2023-02-28T02:01:14;60.83;;;23.90;;
4466;SDS011;2246;42.664;23.278;2023-02-28T02:03:47;55.50;;;24.23;;
4466;SDS011;2246;42.664;23.278;2023-02-28T02:06:13;52.75;;;22.65;;
4466;SDS011;2246;42.664;23.278;2023-02-28T02:08:39;59.60;;;24.13;;
4466;SDS011;2246;42.664;23.278;2023-02-28T02:11:05;55.80;;;22.70;;
4466;SDS011;2246;42.664;23.278;2023-02-28T02:13:47;55.30;;;21.55;;
4466;SDS011;2246;42.664;23.278;2023-02-28T02:18:54;57.08;;;24.10;;
4466;SDS011;2246;42.664;23.278;2023-02-28T02:37:07;58.78;;;22.98;;
4466;SDS011;2246;42.664;23.278;2023-02-28T02:39:37;61.75;;;23.48;;
4466;SDS011;2246;42.664;23.278;2023-02-28T02:42:09;53.92;;;23.40;;
4466;SDS011;2246;42.664;23.278;2023-02-28T02:44:43;50.85;;;20.30;;
4466;SDS011;2246;42.664;23.278;2023-02-28T02:47:15;58.17;;;23.23;;
4466;SDS011;2246;42.664;23.278;2023-02-28T02:49:51;59.67;;;23.55;;
4466;SDS011;2246;42.664;23.278;2023-02-28T02:52:18;62.88;;;24.05;;
4466;SDS011;2246;42.664;23.278;2023-02-28T02:54:46;56.20;;;21.58;;
4466;SDS011;2246;42.664;23.278;2023-02-28T02:57:14;75.80;;;28.67;;
4466;SDS011;2246;42.664;23.278;2023-02-28T02:59:41;53.90;;;22.40;;
4466;SDS011;2246;42.664;23.278;2023-02-28T03:02:08;51.78;;;21.27;;
4466;SDS011;2246;42.664;23.278;2023-02-28T03:04:40;61.95;;;22.58;;
4466;SDS011;2246;42.664;23.278;2023-02-28T03:07:08;61.92;;;21.92;;
4466;SDS011;2246;42.664;23.278;2023-02-28T03:09:34;56.88;;;22.35;;
4466;SDS011;2246;42.664;23.278;2023-02-28T03:12:03;56.47;;;21.00;;
4466;SDS011;2246;42.664;23.278;2023-02-28T03:14:40;54.75;;;20.45;;
4466;SDS011;2246;42.664;23.278;2023-02-28T03:27:24;55.40;;;20.63;;
4466;SDS011;2246;42.664;23.278;2023-02-28T03:30:01;54.85;;;22.05;;
4466;SDS011;2246;42.664;23.278;2023-02-28T03:32:37;53.03;;;20.70;;
4466;SDS011;2246;42.664;23.278;2023-02-28T03:35:07;57.38;;;21.20;;
4466;SDS011;2246;42.664;23.278;2023-02-28T03:37:35;67.05;;;23.40;;
4466;SDS011;2246;42.664;23.278;2023-02-28T03:40:13;66.07;;;26.17;;
4466;SDS011;2246;42.664;23.278;2023-02-28T03:42:41;63.22;;;25.42;;
4466;SDS011;2246;42.664;23.278;2023-02-28T03:45:16;65.40;;;27.50;;
4466;SDS011;2246;42.664;23.278;2023-02-28T03:47:47;66.93;;;26.25;;
4466;SDS011;2246;42.664;23.278;2023-02-28T03:52:49;79.50;;;32.08;;
4466;SDS011;2246;42.664;23.278;2023-02-28T03:55:16;79.95;;;31.63;;
4466;SDS011;2246;42.664;23.278;2023-02-28T03:58:06;71.85;;;29.20;;
4466;SDS011;2246;42.664;23.278;2023-02-28T04:00:37;64.47;;;24.95;;
4466;SDS011;2246;42.664;23.278;2023-02-28T04:03:04;60.10;;;23.88;;
4466;SDS011;2246;42.664;23.278;2023-02-28T04:05:30;57.42;;;22.85;;
4466;SDS011;2246;42.664;23.278;2023-02-28T04:08:03;53.20;;;22.05;;
4466;SDS011;2246;42.664;23.278;2023-02-28T04:10:30;47.38;;;21.67;;
4466;SDS011;2246;42.664;23.278;2023-02-28T04:12:56;47.85;;;18.42;;
4466;SDS011;2246;42.664;23.278;2023-02-28T04:15:22;48.15;;;19.95;;
4466;SDS011;2246;42.664;23.278;2023-02-28T04:17:49;52.50;;;22.73;;
4466;SDS011;2246;42.664;23.278;2023-02-28T04:20:15;60.03;;;24.48;;
4466;SDS011;2246;42.664;23.278;2023-02-28T04:22:41;60.20;;;25.88;;
4466;SDS011;2246;42.664;23.278;2023-02-28T04:25:08;53.55;;;24.17;;
4466;SDS011;2246;42.664;23.278;2023-02-28T04:27:34;39.40;;;18.85;;
4466;SDS011;2246;42.664;23.278;2023-02-28T04:30:00;48.38;;;19.35;;
4466;SDS011;2246;42.664;23.278;2023-02-28T04:32:26;42.53;;;19.67;;
4466;SDS011;2246;42.664;23.278;2023-02-28T04:34:52;49.55;;;20.77;;
4466;SDS011;2246;42.664;23.278;2023-02-28T04:37:18;50.97;;;23.02;;
4466;SDS011;2246;42.664;23.278;2023-02-28T04:39:44;48.53;;;22.30;;
4466;SDS011;2246;42.664;23.278;2023-02-28T04:42:10;42.33;;;20.75;;
4466;SDS011;2246;42.664;23.278;2023-02-28T04:44:37;44.10;;;19.55;;
4466;SDS011;2246;42.664;23.278;2023-02-28T04:47:03;47.42;;;21.48;;
4466;SDS011;2246;42.664;23.278;2023-02-28T04:49:29;52.13;;;21.25;;
4466;SDS011;2246;42.664;23.278;2023-02-28T04:51:55;51.40;;;22.75;;
4466;SDS011;2246;42.664;23.278;2023-02-28T04:54:21;47.05;;;20.00;;
4466;SDS011;2246;42.664;23.278;2023-02-28T04:56:47;41.72;;;19.48;;
4466;SDS011;2246;42.664;23.278;2023-02-28T04:59:14;44.55;;;18.15;;
4466;SDS011;2246;42.664;23.278;2023-02-28T05:01:40;39.47;;;17.48;;
4466;SDS011;2246;42.664;23.278;2023-02-28T05:04:10;40.47;;;17.52;;
4466;SDS011;2246;42.664;23.278;2023-02-28T05:06:36;38.25;;;16.67;;
4466;SDS011;2246;42.664;23.278;2023-02-28T05:09:02;34.45;;;16.65;;
4466;SDS011;2246;42.664;23.278;2023-02-28T05:11:32;34.63;;;14.77;;
4466;SDS011;2246;42.664;23.278;2023-02-28T05:14:03;33.40;;;15.90;;
4466;SDS011;2246;42.664;23.278;2023-02-28T05:16:29;32.58;;;15.02;;
4466;SDS011;2246;42.664;23.278;2023-02-28T05:18:56;38.28;;;15.52;;
4466;SDS011;2246;42.664;23.278;2023-02-28T05:23:51;35.33;;;15.20;;
4466;SDS011;2246;42.664;23.278;2023-02-28T05:26:17;40.83;;;16.63;;
4466;SDS011;2246;42.664;23.278;2023-02-28T05:28:43;38.35;;;15.65;;
4466;SDS011;2246;42.664;23.278;2023-02-28T05:31:10;35.92;;;15.23;;
4466;SDS011;2246;42.664;23.278;2023-02-28T05:33:36;37.47;;;16.00;;
4466;SDS011;2246;42.664;23.278;2023-02-28T05:36:02;40.22;;;16.58;;
4466;SDS011;2246;42.664;23.278;2023-02-28T05:38:29;46.67;;;16.92;;
4466;SDS011;2246;42.664;23.278;2023-02-28T05:40:55;40.45;;;17.35;;
4466;SDS011;2246;42.664;23.278;2023-02-28T05:43:21;35.67;;;15.73;;
4466;SDS011;2246;42.664;23.278;2023-02-28T05:45:47;36.35;;;14.95;;
4466;SDS011;2246;42.664;23.278;2023-02-28T05:48:13;34.28;;;14.70;;
4466;SDS011;2246;42.664;23.278;2023-02-28T05:50:39;33.65;;;14.63;;
4466;SDS011;2246;42.664;23.278;2023-02-28T05:55:33;32.97;;;14.35;;
4466;SDS011;2246;42.664;23.278;2023-02-28T05:58:01;34.17;;;14.38;;
4466;SDS011;2246;42.664;23.278;2023-02-28T06:00:27;36.15;;;15.05;;
4466;SDS011;2246;42.664;23.278;2023-02-28T06:02:53;38.13;;;16.42;;
4466;SDS011;2246;42.664;23.278;2023-02-28T06:05:21;34.00;;;15.40;;
4466;SDS011;2246;42.664;23.278;2023-02-28T06:07:47;38.38;;;15.00;;
4466;SDS011;2246;42.664;23.278;2023-02-28T06:10:13;38.25;;;15.10;;
4466;SDS011;2246;42.664;23.278;2023-02-28T06:12:39;37.15;;;15.80;;
4466;SDS011;2246;42.664;23.278;2023-02-28T06:15:12;39.53;;;16.88;;
4466;SDS011;2246;42.664;23.278;2023-02-28T06:17:39;38.50;;;15.60;;
4466;SDS011;2246;42.664;23.278;2023-02-28T06:20:06;39.38;;;17.42;;
4466;SDS011;2246;42.664;23.278;2023-02-28T06:22:32;42.58;;;19.35;;
4466;SDS011;2246;42.664;23.278;2023-02-28T06:24:58;39.92;;;17.40;;
4466;SDS011;2246;42.664;23.278;2023-02-28T06:27:24;40.17;;;17.17;;
4466;SDS011;2246;42.664;23.278;2023-02-28T06:29:53;40.40;;;16.73;;
4466;SDS011;2246;42.664;23.278;2023-02-28T06:32:20;41.03;;;18.20;;
4466;SDS011;2246;42.664;23.278;2023-02-28T06:34:46;42.65;;;18.45;;
4466;SDS011;2246;42.664;23.278;2023-02-28T06:37:12;43.22;;;17.90;;
4466;SDS011;2246;42.664;23.278;2023-02-28T06:39:38;40.30;;;17.02;;
4466;SDS011;2246;42.664;23.278;2023-02-28T06:42:05;43.20;;;18.70;;
4466;SDS011;2246;42.664;23.278;2023-02-28T06:44:31;43.47;;;17.98;;
4466;SDS011;2246;42.664;23.278;2023-02-28T06:47:00;39.78;;;18.20;;
4466;SDS011;2246;42.664;23.278;2023-02-28T06:51:54;39.15;;;17.75;;
4466;SDS011;2246;42.664;23.278;2023-02-28T06:54:20;46.30;;;19.77;;
4466;SDS011;2246;42.664;23.278;2023-02-28T06:56:46;44.85;;;19.33;;
4466;SDS011;2246;42.664;23.278;2023-02-28T06:59:12;41.38;;;20.33;;
4466;SDS011;2246;42.664;23.278;2023-02-28T07:01:38;39.83;;;19.38;;
4466;SDS011;2246;42.664;23.278;2023-02-28T07:04:04;46.40;;;18.90;;
4466;SDS011;2246;42.664;23.278;2023-02-28T07:06:31;50.42;;;21.02;;
4466;SDS011;2246;42.664;23.278;2023-02-28T07:08:57;46.50;;;21.08;;
4466;SDS011;2246;42.664;23.278;2023-02-28T07:11:24;45.42;;;20.67;;
4466;SDS011;2246;42.664;23.278;2023-02-28T07:13:51;43.43;;;20.00;;
4466;SDS011;2246;42.664;23.278;2023-02-28T07:16:17;49.83;;;21.55;;
4466;SDS011;2246;42.664;23.278;2023-02-28T07:18:43;48.85;;;21.83;;
4466;SDS011;2246;42.664;23.278;2023-02-28T07:21:10;47.78;;;21.35;;
4466;SDS011;2246;42.664;23.278;2023-02-28T07:23:36;55.50;;;22.23;;
4466;SDS011;2246;42.664;23.278;2023-02-28T07:26:03;46.75;;;21.83;;
4466;SDS011;2246;42.664;23.278;2023-02-28T07:28:29;60.00;;;22.98;;
4466;SDS011;2246;42.664;23.278;2023-02-28T07:30:55;73.90;;;28.05;;
4466;SDS011;2246;42.664;23.278;2023-02-28T07:33:21;69.03;;;28.88;;
4466;SDS011;2246;42.664;23.278;2023-02-28T07:35:48;75.78;;;29.42;;
4466;SDS011;2246;42.664;23.278;2023-02-28T07:38:15;82.60;;;30.65;;
4466;SDS011;2246;42.664;23.278;2023-02-28T07:40:41;77.40;;;30.98;;
4466;SDS011;2246;42.664;23.278;2023-02-28T07:43:07;72.13;;;30.85;;
4466;SDS011;2246;42.664;23.278;2023-02-28T07:45:33;79.35;;;30.38;;
4466;SDS011;2246;42.664;23.278;2023-02-28T07:47:59;70.68;;;28.92;;
4466;SDS011;2246;42.664;23.278;2023-02-28T07:50:26;79.55;;;32.55;;
4466;SDS011;2246;42.664;23.278;2023-02-28T07:52:57;80.95;;;31.42;;
4466;SDS011;2246;42.664;23.278;2023-02-28T07:55:23;73.70;;;31.52;;
4466;SDS011;2246;42.664;23.278;2023-02-28T07:57:49;81.43;;;29.95;;
4466;SDS011;2246;42.664;23.278;2023-02-28T08:00:15;87.38;;;31.40;;
4466;SDS011;2246;42.664;23.278;2023-02-28T08:02:41;76.60;;;31.52;;
4466;SDS011;2246;42.664;23.278;2023-02-28T08:05:07;79.50;;;30.95;;
4466;SDS011;2246;42.664;23.278;2023-02-28T08:07:34;71.13;;;30.00;;
4466;SDS011;2246;42.664;23.278;2023-02-28T08:10:00;79.53;;;29.52;;
4466;SDS011;2246;42.664;23.278;2023-02-28T08:12:26;73.45;;;30.25;;
4466;SDS011;2246;42.664;23.278;2023-02-28T08:14:52;73.07;;;29.88;;
4466;SDS011;2246;42.664;23.278;2023-02-28T08:17:18;87.80;;;31.73;;
4466;SDS011;2246;42.664;23.278;2023-02-28T08:19:47;72.00;;;29.85;;
4466;SDS011;2246;42.664;23.278;2023-02-28T08:22:13;68.70;;;27.33;;
4466;SDS011;2246;42.664;23.278;2023-02-28T08:24:40;65.25;;;27.33;;
4466;SDS011;2246;42.664;23.278;2023-02-28T08:27:07;69.07;;;28.67;;
4466;SDS011;2246;42.664;23.278;2023-02-28T08:29:33;64.40;;;28.35;;
4466;SDS011;2246;42.664;23.278;2023-02-28T08:31:59;71.60;;;27.67;;
4466;SDS011;2246;42.664;23.278;2023-02-28T08:34:26;76.63;;;28.80;;
4466;SDS011;2246;42.664;23.278;2023-02-28T08:36:52;78.70;;;29.00;;
4466;SDS011;2246;42.664;23.278;2023-02-28T08:39:18;60.45;;;24.90;;
4466;SDS011;2246;42.664;23.278;2023-02-28T08:41:44;69.57;;;28.23;;
4466;SDS011;2246;42.664;23.278;2023-02-28T08:44:10;89.35;;;29.70;;
4466;SDS011;2246;42.664;23.278;2023-02-28T08:46:37;81.18;;;27.60;;
4466;SDS011;2246;42.664;23.278;2023-02-28T08:49:04;79.30;;;30.05;;
4466;SDS011;2246;42.664;23.278;2023-02-28T08:51:30;81.40;;;30.73;;
4466;SDS011;2246;42.664;23.278;2023-02-28T08:53:58;77.00;;;28.93;;
4466;SDS011;2246;42.664;23.278;2023-02-28T08:56:25;83.70;;;29.13;;
4466;SDS011;2246;42.664;23.278;2023-02-28T08:58:51;78.97;;;29.75;;
4466;SDS011;2246;42.664;23.278;2023-02-28T09:01:21;88.03;;;31.05;;
4466;SDS011;2246;42.664;23.278;2023-02-28T09:03:48;80.38;;;29.88;;
4466;SDS011;2246;42.664;23.278;2023-02-28T09:06:15;86.60;;;31.02;;
4466;SDS011;2246;42.664;23.278;2023-02-28T09:08:41;88.00;;;30.73;;
4466;SDS011;2246;42.664;23.278;2023-02-28T09:11:07;77.93;;;29.48;;
4466;SDS011;2246;42.664;23.278;2023-02-28T09:13:34;78.68;;;29.52;;
4466;SDS011;2246;42.664;23.278;2023-02-28T09:16:02;78.13;;;29.90;;
4466;SDS011;2246;42.664;23.278;2023-02-28T09:18:28;73.30;;;28.50;;
4466;SDS011;2246;42.664;23.278;2023-02-28T09:20:54;72.00;;;29.30;;
4466;SDS011;2246;42.664;23.278;2023-02-28T09:23:20;68.50;;;28.13;;
4466;SDS011;2246;42.664;23.278;2023-02-28T09:25:50;67.10;;;27.77;;
4466;SDS011;2246;42.664;23.278;2023-02-28T09:28:17;71.25;;;29.95;;
4466;SDS011;2246;42.664;23.278;2023-02-28T09:30:47;73.63;;;28.02;;
4466;SDS011;2246;42.664;23.278;2023-02-28T09:33:14;77.07;;;29.08;;
4466;SDS011;2246;42.664;23.278;2023-02-28T09:35:40;77.75;;;30.42;;
4466;SDS011;2246;42.664;23.278;2023-02-28T09:38:07;74.88;;;28.00;;
4466;SDS011;2246;42.664;23.278;2023-02-28T09:40:38;72.93;;;29.67;;
4466;SDS011;2246;42.664;23.278;2023-02-28T09:43:05;83.65;;;29.65;;
4466;SDS011;2246;42.664;23.278;2023-02-28T09:45:33;80.38;;;29.85;;
4466;SDS011;2246;42.664;23.278;2023-02-28T09:48:02;82.45;;;29.70;;
4466;SDS011;2246;42.664;23.278;2023-02-28T09:50:30;75.38;;;28.63;;
4466;SDS011;2246;42.664;23.278;2023-02-28T09:52:59;71.40;;;29.35;;
4466;SDS011;2246;42.664;23.278;2023-02-28T09:55:32;69.65;;;28.70;;
4466;SDS011;2246;42.664;23.278;2023-02-28T09:58:00;68.07;;;27.92;;
4466;SDS011;2246;42.664;23.278;2023-02-28T10:00:30;71.30;;;28.65;;
4466;SDS011;2246;42.664;23.278;2023-02-28T10:05:43;68.82;;;28.45;;
4466;SDS011;2246;42.664;23.278;2023-02-28T10:08:14;69.05;;;28.52;;
4466;SDS011;2246;42.664;23.278;2023-02-28T10:10:45;75.90;;;28.27;;
4466;SDS011;2246;42.664;23.278;2023-02-28T10:15:58;82.60;;;31.67;;
4466;SDS011;2246;42.664;23.278;2023-02-28T10:18:26;79.30;;;32.10;;
4466;SDS011;2246;42.664;23.278;2023-02-28T10:20:55;62.10;;;27.15;;
4466;SDS011;2246;42.664;23.278;2023-02-28T10:23:28;77.68;;;30.45;;
4466;SDS011;2246;42.664;23.278;2023-02-28T10:26:03;77.70;;;29.75;;
4466;SDS011;2246;42.664;23.278;2023-02-28T10:28:31;69.07;;;29.77;;
4466;SDS011;2246;42.664;23.278;2023-02-28T10:30:57;68.88;;;29.45;;
4466;SDS011;2246;42.664;23.278;2023-02-28T10:33:33;71.07;;;30.85;;
4466;SDS011;2246;42.664;23.278;2023-02-28T10:36:00;62.08;;;27.77;;
4466;SDS011;2246;42.664;23.278;2023-02-28T10:38:28;61.17;;;27.15;;
4466;SDS011;2246;42.664;23.278;2023-02-28T10:43:21;66.53;;;26.13;;
4466;SDS011;2246;42.664;23.278;2023-02-28T10:45:53;49.90;;;21.95;;
4466;SDS011;2246;42.664;23.278;2023-02-28T10:55:43;49.17;;;14.60;;
4466;SDS011;2246;42.664;23.278;2023-02-28T11:00:59;26.83;;;10.38;;
4466;SDS011;2246;42.664;23.278;2023-02-28T11:03:28;33.05;;;10.32;;
4466;SDS011;2246;42.664;23.278;2023-02-28T11:05:55;25.90;;;9.98;;
4466;SDS011;2246;42.664;23.278;2023-02-28T11:08:21;30.17;;;10.45;;
4466;SDS011;2246;42.664;23.278;2023-02-28T11:10:55;25.80;;;10.57;;
4466;SDS011;2246;42.664;23.278;2023-02-28T11:13:24;25.55;;;10.43;;
4466;SDS011;2246;42.664;23.278;2023-02-28T11:15:52;31.20;;;10.50;;
4466;SDS011;2246;42.664;23.278;2023-02-28T11:18:27;22.48;;;9.73;;
4466;SDS011;2246;42.664;23.278;2023-02-28T11:20:55;19.58;;;9.52;;
4466;SDS011;2246;42.664;23.278;2023-02-28T11:23:24;25.52;;;11.55;;
4466;SDS011;2246;42.664;23.278;2023-02-28T11:25:53;29.42;;;11.07;;
4466;SDS011;2246;42.664;23.278;2023-02-28T11:28:31;23.17;;;10.77;;
4466;SDS011;2246;42.664;23.278;2023-02-28T11:33:31;29.60;;;11.30;;
4466;SDS011;2246;42.664;23.278;2023-02-28T11:36:02;30.08;;;11.38;;
4466;SDS011;2246;42.664;23.278;2023-02-28T11:38:29;28.98;;;11.85;;
4466;SDS011;2246;42.664;23.278;2023-02-28T11:43:35;28.35;;;13.10;;
4466;SDS011;2246;42.664;23.278;2023-02-28T11:48:41;31.73;;;12.05;;
4466;SDS011;2246;42.664;23.278;2023-02-28T11:59:08;33.28;;;12.70;;
4466;SDS011;2246;42.664;23.278;2023-02-28T12:04:25;28.27;;;13.02;;
4466;SDS011;2246;42.664;23.278;2023-02-28T12:06:58;32.33;;;13.18;;
4466;SDS011;2246;42.664;23.278;2023-02-28T12:22:22;46.67;;;13.75;;
4466;SDS011;2246;42.664;23.278;2023-02-28T12:27:22;34.80;;;13.63;;
4466;SDS011;2246;42.664;23.278;2023-02-28T12:29:54;31.92;;;13.35;;
4466;SDS011;2246;42.664;23.278;2023-02-28T12:32:41;30.33;;;12.75;;
4466;SDS011;2246;42.664;23.278;2023-02-28T12:40:06;32.58;;;12.23;;
4466;SDS011;2246;42.664;23.278;2023-02-28T12:42:39;33.70;;;12.15;;
4466;SDS011;2246;42.664;23.278;2023-02-28T12:47:52;27.55;;;12.27;;
4466;SDS011;2246;42.664;23.278;2023-02-28T12:50:21;32.88;;;14.73;;
4466;SDS011;2246;42.664;23.278;2023-02-28T12:55:35;28.60;;;11.32;;
4466;SDS011;2246;42.664;23.278;2023-02-28T13:00:35;31.38;;;12.57;;
4466;SDS011;2246;42.664;23.278;2023-02-28T13:08:59;25.13;;;11.57;;
4466;SDS011;2246;42.664;23.278;2023-02-28T13:14:02;27.52;;;12.23;;
4466;SDS011;2246;42.664;23.278;2023-02-28T13:16:46;36.75;;;12.25;;
4466;SDS011;2246;42.664;23.278;2023-02-28T13:19:16;30.63;;;11.93;;
4466;SDS011;2246;42.664;23.278;2023-02-28T13:21:43;27.48;;;11.63;;
4466;SDS011;2246;42.664;23.278;2023-02-28T13:24:10;29.73;;;11.75;;
4466;SDS011;2246;42.664;23.278;2023-02-28T13:32:18;29.70;;;11.25;;
4466;SDS011;2246;42.664;23.278;2023-02-28T13:42:22;25.55;;;10.20;;
4466;SDS011;2246;42.664;23.278;2023-02-28T13:47:25;24.48;;;11.05;;
4466;SDS011;2246;42.664;23.278;2023-02-28T13:49:53;23.05;;;9.75;;
4466;SDS011;2246;42.664;23.278;2023-02-28T13:52:20;23.23;;;9.00;;
4466;SDS011;2246;42.664;23.278;2023-02-28T14:00:01;23.45;;;9.38;;
4466;SDS011;2246;42.664;23.278;2023-02-28T14:05:15;23.05;;;8.38;;
4466;SDS011;2246;42.664;23.278;2023-02-28T14:07:46;22.98;;;8.60;;
4466;SDS011;2246;42.664;23.278;2023-02-28T14:11:04;30.55;;;9.40;;
4466;SDS011;2246;42.664;23.278;2023-02-28T14:13:11;25.25;;;9.23;;
4466;SDS011;2246;42.664;23.278;2023-02-28T14:18:17;26.70;;;9.52;;
4466;SDS011;2246;42.664;23.278;2023-02-28T14:20:44;22.83;;;9.20;;
4466;SDS011;2246;42.664;23.278;2023-02-28T14:36:26;24.75;;;9.68;;
4466;SDS011;2246;42.664;23.278;2023-02-28T14:38:55;22.92;;;9.27;;
4466;SDS011;2246;42.664;23.278;2023-02-28T14:41:35;24.88;;;10.15;;
4466;SDS011;2246;42.664;23.278;2023-02-28T14:44:12;23.88;;;9.18;;
4466;SDS011;2246;42.664;23.278;2023-02-28T14:46:40;22.58;;;8.80;;
4466;SDS011;2246;42.664;23.278;2023-02-28T14:49:06;22.90;;;8.73;;
4466;SDS011;2246;42.664;23.278;2023-02-28T14:51:33;21.58;;;8.85;;
4466;SDS011;2246;42.664;23.278;2023-02-28T14:53:59;27.63;;;9.52;;
4466;SDS011;2246;42.664;23.278;2023-02-28T14:56:36;35.25;;;9.93;;
4466;SDS011;2246;42.664;23.278;2023-02-28T14:59:03;21.05;;;8.52;;
4466;SDS011;2246;42.664;23.278;2023-02-28T15:01:30;24.48;;;9.35;;
4466;SDS011;2246;42.664;23.278;2023-02-28T15:04:11;23.77;;;10.23;;
4466;SDS011;2246;42.664;23.278;2023-02-28T15:06:41;29.13;;;9.32;;
4466;SDS011;2246;42.664;23.278;2023-02-28T15:09:08;28.48;;;8.15;;
4466;SDS011;2246;42.664;23.278;2023-02-28T15:11:34;25.70;;;9.18;;
4466;SDS011;2246;42.664;23.278;2023-02-28T15:14:01;25.58;;;8.57;;
4466;SDS011;2246;42.664;23.278;2023-02-28T15:16:29;41.33;;;9.63;;
4466;SDS011;2246;42.664;23.278;2023-02-28T15:21:24;23.35;;;9.25;;
4466;SDS011;2246;42.664;23.278;2023-02-28T15:23:55;29.80;;;9.63;;
4466;SDS011;2246;42.664;23.278;2023-02-28T15:26:25;27.08;;;10.68;;
4466;SDS011;2246;42.664;23.278;2023-02-28T15:28:55;25.30;;;10.38;;
4466;SDS011;2246;42.664;23.278;2023-02-28T15:31:27;24.55;;;10.23;;
4466;SDS011;2246;42.664;23.278;2023-02-28T15:33:54;24.67;;;9.55;;
4466;SDS011;2246;42.664;23.278;2023-02-28T15:36:20;23.00;;;9.25;;
4466;SDS011;2246;42.664;23.278;2023-02-28T15:38:50;21.63;;;8.40;;
4466;SDS011;2246;42.664;23.278;2023-02-28T15:41:27;37.20;;;10.20;;
4466;SDS011;2246;42.664;23.278;2023-02-28T15:46:39;23.90;;;9.35;;
4466;SDS011;2246;42.664;23.278;2023-02-28T15:51:33;27.55;;;8.35;;
4466;SDS011;2246;42.664;23.278;2023-02-28T15:54:01;32.75;;;9.98;;
4466;SDS011;2246;42.664;23.278;2023-02-28T15:58:54;31.95;;;11.13;;
4466;SDS011;2246;42.664;23.278;2023-02-28T16:01:24;24.00;;;8.23;;
4466;SDS011;2246;42.664;23.278;2023-02-28T16:03:52;25.42;;;10.00;;
4466;SDS011;2246;42.664;23.278;2023-02-28T16:06:32;23.05;;;8.88;;
4466;SDS011;2246;42.664;23.278;2023-02-28T16:08:58;15.95;;;7.25;;
4466;SDS011;2246;42.664;23.278;2023-02-28T16:11:24;23.55;;;8.88;;
4466;SDS011;2246;42.664;23.278;2023-02-28T16:13:51;24.85;;;9.13;;
4466;SDS011;2246;42.664;23.278;2023-02-28T16:16:18;19.90;;;7.72;;
4466;SDS011;2246;42.664;23.278;2023-02-28T16:18:45;21.90;;;8.60;;
4466;SDS011;2246;42.664;23.278;2023-02-28T16:21:11;19.00;;;8.45;;
4466;SDS011;2246;42.664;23.278;2023-02-28T16:23:37;16.48;;;8.15;;
4466;SDS011;2246;42.664;23.278;2023-02-28T16:26:03;15.40;;;8.13;;
4466;SDS011;2246;42.664;23.278;2023-02-28T16:28:30;19.63;;;7.78;;
4466;SDS011;2246;42.664;23.278;2023-02-28T16:30:57;21.77;;;8.15;;
4466;SDS011;2246;42.664;23.278;2023-02-28T16:35:51;15.00;;;7.15;;
4466;SDS011;2246;42.664;23.278;2023-02-28T16:38:17;16.75;;;7.03;;
4466;SDS011;2246;42.664;23.278;2023-02-28T16:40:44;17.15;;;7.50;;
4466;SDS011;2246;42.664;23.278;2023-02-28T16:43:15;18.15;;;7.40;;
4466;SDS011;2246;42.664;23.278;2023-02-28T16:45:42;14.30;;;6.28;;
4466;SDS011;2246;42.664;23.278;2023-02-28T16:48:11;15.10;;;7.25;;
4466;SDS011;2246;42.664;23.278;2023-02-28T16:50:38;13.52;;;6.97;;
4466;SDS011;2246;42.664;23.278;2023-02-28T16:53:04;15.15;;;7.22;;
4466;SDS011;2246;42.664;23.278;2023-02-28T16:55:30;15.02;;;6.70;;
4466;SDS011;2246;42.664;23.278;2023-02-28T16:57:57;15.63;;;7.10;;
4466;SDS011;2246;42.664;23.278;2023-02-28T17:00:24;11.25;;;6.45;;
4466;SDS011;2246;42.664;23.278;2023-02-28T17:02:50;16.23;;;7.68;;
4466;SDS011;2246;42.664;23.278;2023-02-28T17:05:17;16.30;;;6.72;;
4466;SDS011;2246;42.664;23.278;2023-02-28T17:07:43;18.15;;;6.30;;
4466;SDS011;2246;42.664;23.278;2023-02-28T17:12:36;12.60;;;5.63;;
4466;SDS011;2246;42.664;23.278;2023-02-28T17:15:02;10.38;;;5.57;;
4466;SDS011;2246;42.664;23.278;2023-02-28T17:17:28;13.40;;;5.20;;
4466;SDS011;2246;42.664;23.278;2023-02-28T17:19:56;13.13;;;5.40;;
4466;SDS011;2246;42.664;23.278;2023-02-28T17:22:22;16.45;;;5.45;;
4466;SDS011;2246;42.664;23.278;2023-02-28T17:24:48;18.55;;;6.43;;
4466;SDS011;2246;42.664;23.278;2023-02-28T17:27:14;10.90;;;5.88;;
4466;SDS011;2246;42.664;23.278;2023-02-28T17:29:40;10.25;;;5.40;;
4466;SDS011;2246;42.664;23.278;2023-02-28T17:32:06;7.88;;;4.28;;